sensor_id;sensor_type;location;lat;lon;timestamp;temperature;humidity
2577;DHT22;1298;51.252;6.802;2023-01-01T00:02:40;17.30;99.90
2577;DHT22;1298;51.252;6.802;2023-01-01T00:05:25;17.30;99.90
2577;DHT22;1298;51.252;6.802;2023-01-01T00:08:12;17.30;99.90
2577;DHT22;1298;51.252;6.802;2023-01-01T00:10:59;17.30;99.90
2577;DHT22;1298;51.252;6.802;2023-01-01T00:13:44;17.00;99.90
2577;DHT22;1298;51.252;6.802;2023-01-01T00:16:29;16.80;99.90
2577;DHT22;1298;51.252;6.802;2023-01-01T00:19:16;16.60;99.90
2577;DHT22;1298;51.252;6.802;2023-01-01T00:22:01;16.40;99.90
2577;DHT22;1298;51.252;6.802;2023-01-01T00:24:47;16.30;99.90
2577;DHT22;1298;51.252;6.802;2023-01-01T00:27:32;16.20;99.90
2577;DHT22;1298;51.252;6.802;2023-01-01T00:30:17;16.00;99.90
2577;DHT22;1298;51.252;6.802;2023-01-01T00:33:02;16.00;99.90
2577;DHT22;1298;51.252;6.802;2023-01-01T00:35:51;16.00;99.90
2577;DHT22;1298;51.252;6.802;2023-01-01T00:38:37;15.90;99.90
2577;DHT22;1298;51.252;6.802;2023-01-01T00:41:23;15.90;99.90
2577;DHT22;1298;51.252;6.802;2023-01-01T00:44:08;15.90;99.90
2577;DHT22;1298;51.252;6.802;2023-01-01T00:46:53;15.80;99.90
2577;DHT22;1298;51.252;6.802;2023-01-01T00:49:40;15.80;99.90
2577;DHT22;1298;51.252;6.802;2023-01-01T00:52:26;15.80;99.90
2577;DHT22;1298;51.252;6.802;2023-01-01T00:55:11;15.70;99.90
2577;DHT22;1298;51.252;6.802;2023-01-01T00:57:56;15.70;99.90
2577;DHT22;1298;51.252;6.802;2023-01-01T01:00:42;15.70;99.90
2577;DHT22;1298;51.252;6.802;2023-01-01T01:03:27;15.80;99.90
2577;DHT22;1298;51.252;6.802;2023-01-01T01:06:14;15.80;99.90
2577;DHT22;1298;51.252;6.802;2023-01-01T01:09:01;15.80;99.90
2577;DHT22;1298;51.252;6.802;2023-01-01T01:11:46;15.80;99.90
2577;DHT22;1298;51.252;6.802;2023-01-01T01:14:31;15.80;99.90
2577;DHT22;1298;51.252;6.802;2023-01-01T01:17:17;15.70;99.90
2577;DHT22;1298;51.252;6.802;2023-01-01T01:20:03;15.70;99.90
2577;DHT22;1298;51.252;6.802;2023-01-01T01:22:48;15.70;99.90
2577;DHT22;1298;51.252;6.802;2023-01-01T01:25:35;15.70;99.90
2577;DHT22;1298;51.252;6.802;2023-01-01T01:28:20;15.80;99.90
2577;DHT22;1298;51.252;6.802;2023-01-01T01:31:06;15.80;99.90
2577;DHT22;1298;51.252;6.802;2023-01-01T01:33:51;15.80;99.90
2577;DHT22;1298;51.252;6.802;2023-01-01T01:36:36;15.80;99.90
2577;DHT22;1298;51.252;6.802;2023-01-01T01:39:21;15.80;99.90
2577;DHT22;1298;51.252;6.802;2023-01-01T01:42:10;15.80;99.90
2577;DHT22;1298;51.252;6.802;2023-01-01T01:44:57;15.80;99.90
2577;DHT22;1298;51.252;6.802;2023-01-01T01:47:45;15.90;99.90
2577;DHT22;1298;51.252;6.802;2023-01-01T01:50:31;15.90;99.90
2577;DHT22;1298;51.252;6.802;2023-01-01T01:53:18;15.90;99.90
2577;DHT22;1298;51.252;6.802;2023-01-01T01:56:07;15.80;99.90
2577;DHT22;1298;51.252;6.802;2023-01-01T01:58:54;15.90;99.90
2577;DHT22;1298;51.252;6.802;2023-01-01T02:01:40;15.80;99.90
2577;DHT22;1298;51.252;6.802;2023-01-01T02:04:26;15.80;99.90
2577;DHT22;1298;51.252;6.802;2023-01-01T02:07:11;15.70;99.90
2577;DHT22;1298;51.252;6.802;2023-01-01T02:09:58;15.70;99.90
2577;DHT22;1298;51.252;6.802;2023-01-01T02:12:44;15.70;99.90
2577;DHT22;1298;51.252;6.802;2023-01-01T02:15:32;15.60;99.90
2577;DHT22;1298;51.252;6.802;2023-01-01T02:18:19;15.50;99.90
2577;DHT22;1298;51.252;6.802;2023-01-01T02:21:06;15.40;99.90
2577;DHT22;1298;51.252;6.802;2023-01-01T02:23:58;15.30;99.90
2577;DHT22;1298;51.252;6.802;2023-01-01T02:26:46;15.30;99.90
2577;DHT22;1298;51.252;6.802;2023-01-01T02:29:37;15.20;99.90
2577;DHT22;1298;51.252;6.802;2023-01-01T02:32:26;15.20;99.90
2577;DHT22;1298;51.252;6.802;2023-01-01T02:35:13;15.20;99.90
2577;DHT22;1298;51.252;6.802;2023-01-01T02:38:20;15.10;99.90
2577;DHT22;1298;51.252;6.802;2023-01-01T02:41:08;15.10;99.90
2577;DHT22;1298;51.252;6.802;2023-01-01T02:43:55;15.10;99.90
2577;DHT22;1298;51.252;6.802;2023-01-01T02:46:42;15.10;99.90
2577;DHT22;1298;51.252;6.802;2023-01-01T02:49:27;15.10;99.90
2577;DHT22;1298;51.252;6.802;2023-01-01T02:52:14;15.00;99.90
2577;DHT22;1298;51.252;6.802;2023-01-01T02:55:06;15.10;99.90
2577;DHT22;1298;51.252;6.802;2023-01-01T02:57:54;15.10;99.90
2577;DHT22;1298;51.252;6.802;2023-01-01T03:01:04;15.10;99.90
2577;DHT22;1298;51.252;6.802;2023-01-01T03:03:58;15.10;99.90
2577;DHT22;1298;51.252;6.802;2023-01-01T03:06:46;15.10;99.90
2577;DHT22;1298;51.252;6.802;2023-01-01T03:09:34;15.10;99.90
2577;DHT22;1298;51.252;6.802;2023-01-01T03:12:27;15.10;99.90
2577;DHT22;1298;51.252;6.802;2023-01-01T03:15:25;15.20;99.90
2577;DHT22;1298;51.252;6.802;2023-01-01T03:18:13;15.20;99.90
2577;DHT22;1298;51.252;6.802;2023-01-01T03:21:02;15.10;99.90
2577;DHT22;1298;51.252;6.802;2023-01-01T03:23:50;15.20;99.90
2577;DHT22;1298;51.252;6.802;2023-01-01T03:26:38;15.20;99.90
2577;DHT22;1298;51.252;6.802;2023-01-01T03:29:24;15.10;99.90
2577;DHT22;1298;51.252;6.802;2023-01-01T03:32:12;15.10;99.90
2577;DHT22;1298;51.252;6.802;2023-01-01T03:34:59;15.10;99.90
2577;DHT22;1298;51.252;6.802;2023-01-01T03:37:47;15.20;99.90
2577;DHT22;1298;51.252;6.802;2023-01-01T03:40:33;15.10;99.90
2577;DHT22;1298;51.252;6.802;2023-01-01T03:43:21;15.10;99.90
2577;DHT22;1298;51.252;6.802;2023-01-01T03:46:08;15.10;99.90
2577;DHT22;1298;51.252;6.802;2023-01-01T03:48:54;15.10;99.90
2577;DHT22;1298;51.252;6.802;2023-01-01T03:51:45;15.10;99.90
2577;DHT22;1298;51.252;6.802;2023-01-01T03:54:41;15.20;99.90
2577;DHT22;1298;51.252;6.802;2023-01-01T03:57:31;15.20;99.90
2577;DHT22;1298;51.252;6.802;2023-01-01T04:00:20;15.30;99.90
2577;DHT22;1298;51.252;6.802;2023-01-01T04:03:06;15.30;99.90
2577;DHT22;1298;51.252;6.802;2023-01-01T04:05:53;15.40;99.90
2577;DHT22;1298;51.252;6.802;2023-01-01T04:08:38;15.30;99.90
2577;DHT22;1298;51.252;6.802;2023-01-01T04:11:27;15.30;99.90
2577;DHT22;1298;51.252;6.802;2023-01-01T04:14:31;15.30;99.90
2577;DHT22;1298;51.252;6.802;2023-01-01T04:17:17;15.30;99.90
2577;DHT22;1298;51.252;6.802;2023-01-01T04:20:02;15.30;99.90
2577;DHT22;1298;51.252;6.802;2023-01-01T04:22:48;15.30;99.90
2577;DHT22;1298;51.252;6.802;2023-01-01T04:25:33;15.30;99.90
2577;DHT22;1298;51.252;6.802;2023-01-01T04:28:19;15.40;99.90
2577;DHT22;1298;51.252;6.802;2023-01-01T04:31:05;15.40;99.90
2577;DHT22;1298;51.252;6.802;2023-01-01T04:33:52;15.50;99.90
2577;DHT22;1298;51.252;6.802;2023-01-01T04:36:37;15.50;99.90
2577;DHT22;1298;51.252;6.802;2023-01-01T04:39:23;15.50;99.90
2577;DHT22;1298;51.252;6.802;2023-01-01T04:42:08;15.60;99.90
2577;DHT22;1298;51.252;6.802;2023-01-01T04:44:54;15.60;99.90
2577;DHT22;1298;51.252;6.802;2023-01-01T04:47:39;15.60;99.90
2577;DHT22;1298;51.252;6.802;2023-01-01T04:50:25;15.70;99.90
2577;DHT22;1298;51.252;6.802;2023-01-01T04:53:10;15.60;99.90
2577;DHT22;1298;51.252;6.802;2023-01-01T04:55:55;15.60;99.90
2577;DHT22;1298;51.252;6.802;2023-01-01T04:58:41;15.60;99.90
2577;DHT22;1298;51.252;6.802;2023-01-01T05:01:28;15.60;99.90
2577;DHT22;1298;51.252;6.802;2023-01-01T05:04:13;15.60;99.90
2577;DHT22;1298;51.252;6.802;2023-01-01T05:06:59;15.60;99.90
2577;DHT22;1298;51.252;6.802;2023-01-01T05:09:44;15.50;99.90
2577;DHT22;1298;51.252;6.802;2023-01-01T05:12:29;15.60;99.90
2577;DHT22;1298;51.252;6.802;2023-01-01T05:15:14;15.60;99.90
2577;DHT22;1298;51.252;6.802;2023-01-01T05:18:01;15.50;99.90
2577;DHT22;1298;51.252;6.802;2023-01-01T05:20:46;15.50;99.90
2577;DHT22;1298;51.252;6.802;2023-01-01T05:23:31;15.50;99.90
2577;DHT22;1298;51.252;6.802;2023-01-01T05:26:17;15.50;99.90
2577;DHT22;1298;51.252;6.802;2023-01-01T05:29:03;15.50;99.90
2577;DHT22;1298;51.252;6.802;2023-01-01T05:31:48;15.40;99.90
2577;DHT22;1298;51.252;6.802;2023-01-01T05:34:35;15.40;99.90
2577;DHT22;1298;51.252;6.802;2023-01-01T05:37:20;15.40;99.90
2577;DHT22;1298;51.252;6.802;2023-01-01T05:40:06;15.40;99.90
2577;DHT22;1298;51.252;6.802;2023-01-01T05:42:51;15.40;99.90
2577;DHT22;1298;51.252;6.802;2023-01-01T05:45:36;15.40;99.90
2577;DHT22;1298;51.252;6.802;2023-01-01T05:48:21;15.40;99.90
2577;DHT22;1298;51.252;6.802;2023-01-01T05:51:09;15.40;99.90
2577;DHT22;1298;51.252;6.802;2023-01-01T05:53:54;15.40;99.90
2577;DHT22;1298;51.252;6.802;2023-01-01T05:56:40;15.40;99.90
2577;DHT22;1298;51.252;6.802;2023-01-01T05:59:25;15.40;99.90
2577;DHT22;1298;51.252;6.802;2023-01-01T06:02:10;15.40;99.90
2577;DHT22;1298;51.252;6.802;2023-01-01T06:04:55;15.40;99.90
2577;DHT22;1298;51.252;6.802;2023-01-01T06:07:42;15.30;99.90
2577;DHT22;1298;51.252;6.802;2023-01-01T06:10:27;15.40;99.90
2577;DHT22;1298;51.252;6.802;2023-01-01T06:13:12;15.30;99.90
2577;DHT22;1298;51.252;6.802;2023-01-01T06:15:58;15.40;99.90
2577;DHT22;1298;51.252;6.802;2023-01-01T06:18:44;15.30;99.90
2577;DHT22;1298;51.252;6.802;2023-01-01T06:21:29;15.40;99.90
2577;DHT22;1298;51.252;6.802;2023-01-01T06:24:16;15.40;99.90
2577;DHT22;1298;51.252;6.802;2023-01-01T06:27:01;15.40;99.90
2577;DHT22;1298;51.252;6.802;2023-01-01T06:29:46;15.40;99.90
2577;DHT22;1298;51.252;6.802;2023-01-01T06:32:31;15.40;99.90
2577;DHT22;1298;51.252;6.802;2023-01-01T06:35:17;15.40;99.90
2577;DHT22;1298;51.252;6.802;2023-01-01T06:38:02;15.40;99.90
2577;DHT22;1298;51.252;6.802;2023-01-01T06:40:55;15.40;99.90
2577;DHT22;1298;51.252;6.802;2023-01-01T06:43:41;15.40;99.90
2577;DHT22;1298;51.252;6.802;2023-01-01T06:46:27;15.40;99.90
2577;DHT22;1298;51.252;6.802;2023-01-01T06:49:12;15.40;99.90
2577;DHT22;1298;51.252;6.802;2023-01-01T06:51:58;15.40;99.90
2577;DHT22;1298;51.252;6.802;2023-01-01T06:54:43;15.40;99.90
2577;DHT22;1298;51.252;6.802;2023-01-01T06:57:29;15.40;99.90
2577;DHT22;1298;51.252;6.802;2023-01-01T07:00:17;15.40;99.90
2577;DHT22;1298;51.252;6.802;2023-01-01T07:03:02;15.40;99.90
2577;DHT22;1298;51.252;6.802;2023-01-01T07:05:47;15.40;99.90
2577;DHT22;1298;51.252;6.802;2023-01-01T07:08:33;15.40;99.90
2577;DHT22;1298;51.252;6.802;2023-01-01T07:11:18;15.40;99.90
2577;DHT22;1298;51.252;6.802;2023-01-01T07:14:05;15.40;99.90
2577;DHT22;1298;51.252;6.802;2023-01-01T07:16:50;15.40;99.90
2577;DHT22;1298;51.252;6.802;2023-01-01T07:19:35;15.40;99.90
2577;DHT22;1298;51.252;6.802;2023-01-01T07:22:21;15.40;99.90
2577;DHT22;1298;51.252;6.802;2023-01-01T07:25:06;15.40;99.90
2577;DHT22;1298;51.252;6.802;2023-01-01T07:27:53;15.40;99.90
2577;DHT22;1298;51.252;6.802;2023-01-01T07:30:40;15.30;99.90
2577;DHT22;1298;51.252;6.802;2023-01-01T07:33:25;15.40;99.90
2577;DHT22;1298;51.252;6.802;2023-01-01T07:36:10;15.30;99.90
2577;DHT22;1298;51.252;6.802;2023-01-01T07:38:55;15.30;99.90
2577;DHT22;1298;51.252;6.802;2023-01-01T07:41:41;15.20;99.90
2577;DHT22;1298;51.252;6.802;2023-01-01T07:44:26;15.20;99.90
2577;DHT22;1298;51.252;6.802;2023-01-01T07:47:18;15.10;99.90
2577;DHT22;1298;51.252;6.802;2023-01-01T07:50:04;15.00;99.90
2577;DHT22;1298;51.252;6.802;2023-01-01T07:52:50;15.00;99.90
2577;DHT22;1298;51.252;6.802;2023-01-01T07:55:35;14.90;99.90
2577;DHT22;1298;51.252;6.802;2023-01-01T07:58:20;14.90;99.90
2577;DHT22;1298;51.252;6.802;2023-01-01T08:01:08;14.90;99.90
2577;DHT22;1298;51.252;6.802;2023-01-01T08:03:55;14.80;99.90
2577;DHT22;1298;51.252;6.802;2023-01-01T08:06:40;14.80;99.90
2577;DHT22;1298;51.252;6.802;2023-01-01T08:09:25;14.80;99.90
2577;DHT22;1298;51.252;6.802;2023-01-01T08:12:10;14.70;99.90
2577;DHT22;1298;51.252;6.802;2023-01-01T08:14:56;14.70;99.90
2577;DHT22;1298;51.252;6.802;2023-01-01T08:17:41;14.70;99.90
2577;DHT22;1298;51.252;6.802;2023-01-01T08:20:28;14.70;99.90
2577;DHT22;1298;51.252;6.802;2023-01-01T08:23:13;14.70;99.90
2577;DHT22;1298;51.252;6.802;2023-01-01T08:25:59;14.60;99.90
2577;DHT22;1298;51.252;6.802;2023-01-01T08:28:45;14.70;99.90
2577;DHT22;1298;51.252;6.802;2023-01-01T08:31:30;14.60;99.90
2577;DHT22;1298;51.252;6.802;2023-01-01T08:34:15;14.60;99.90
2577;DHT22;1298;51.252;6.802;2023-01-01T08:37:02;14.60;99.90
2577;DHT22;1298;51.252;6.802;2023-01-01T08:39:48;14.60;99.90
2577;DHT22;1298;51.252;6.802;2023-01-01T08:42:33;14.60;99.90
2577;DHT22;1298;51.252;6.802;2023-01-01T08:45:18;14.60;99.90
2577;DHT22;1298;51.252;6.802;2023-01-01T08:48:04;14.60;99.90
2577;DHT22;1298;51.252;6.802;2023-01-01T08:50:51;14.60;99.90
2577;DHT22;1298;51.252;6.802;2023-01-01T08:53:37;14.60;99.90
2577;DHT22;1298;51.252;6.802;2023-01-01T08:56:22;14.60;99.90
2577;DHT22;1298;51.252;6.802;2023-01-01T08:59:08;14.60;99.90
2577;DHT22;1298;51.252;6.802;2023-01-01T09:01:53;14.60;99.90
2577;DHT22;1298;51.252;6.802;2023-01-01T09:04:38;14.60;99.90
2577;DHT22;1298;51.252;6.802;2023-01-01T09:07:23;14.60;99.90
2577;DHT22;1298;51.252;6.802;2023-01-01T09:10:09;14.60;99.90
2577;DHT22;1298;51.252;6.802;2023-01-01T09:12:55;14.60;99.90
2577;DHT22;1298;51.252;6.802;2023-01-01T09:15:40;14.60;99.90
2577;DHT22;1298;51.252;6.802;2023-01-01T09:18:26;14.60;99.90
2577;DHT22;1298;51.252;6.802;2023-01-01T09:21:12;14.70;99.90
2577;DHT22;1298;51.252;6.802;2023-01-01T09:23:57;14.70;99.90
2577;DHT22;1298;51.252;6.802;2023-01-01T09:26:43;14.70;99.90
2577;DHT22;1298;51.252;6.802;2023-01-01T09:29:29;14.70;99.90
2577;DHT22;1298;51.252;6.802;2023-01-01T09:32:14;14.70;99.90
2577;DHT22;1298;51.252;6.802;2023-01-01T09:34:59;14.70;99.90
2577;DHT22;1298;51.252;6.802;2023-01-01T09:37:44;14.70;99.90
2577;DHT22;1298;51.252;6.802;2023-01-01T09:40:31;14.70;99.90
2577;DHT22;1298;51.252;6.802;2023-01-01T09:43:23;14.70;99.90
2577;DHT22;1298;51.252;6.802;2023-01-01T09:46:11;14.70;99.90
2577;DHT22;1298;51.252;6.802;2023-01-01T09:48:57;14.70;99.90
2577;DHT22;1298;51.252;6.802;2023-01-01T09:51:43;14.70;99.90
2577;DHT22;1298;51.252;6.802;2023-01-01T09:54:33;14.70;99.90
2577;DHT22;1298;51.252;6.802;2023-01-01T09:57:21;14.70;99.90
2577;DHT22;1298;51.252;6.802;2023-01-01T10:00:14;14.60;99.90
2577;DHT22;1298;51.252;6.802;2023-01-01T10:03:05;14.60;99.90
2577;DHT22;1298;51.252;6.802;2023-01-01T10:05:57;14.60;99.90
2577;DHT22;1298;51.252;6.802;2023-01-01T10:08:47;14.60;99.90
2577;DHT22;1298;51.252;6.802;2023-01-01T10:11:39;14.60;99.90
2577;DHT22;1298;51.252;6.802;2023-01-01T10:14:27;14.60;99.90
2577;DHT22;1298;51.252;6.802;2023-01-01T10:17:17;14.60;99.90
2577;DHT22;1298;51.252;6.802;2023-01-01T10:20:05;14.60;99.90
2577;DHT22;1298;51.252;6.802;2023-01-01T10:22:52;14.60;99.90
2577;DHT22;1298;51.252;6.802;2023-01-01T10:25:38;14.60;99.90
2577;DHT22;1298;51.252;6.802;2023-01-01T10:28:25;14.60;99.90
2577;DHT22;1298;51.252;6.802;2023-01-01T10:31:15;14.60;99.90
2577;DHT22;1298;51.252;6.802;2023-01-01T10:34:07;14.60;99.90
2577;DHT22;1298;51.252;6.802;2023-01-01T10:36:56;14.60;99.90
2577;DHT22;1298;51.252;6.802;2023-01-01T10:39:42;14.70;99.90
2577;DHT22;1298;51.252;6.802;2023-01-01T10:42:29;14.60;99.90
2577;DHT22;1298;51.252;6.802;2023-01-01T10:45:15;14.60;99.90
2577;DHT22;1298;51.252;6.802;2023-01-01T10:48:17;14.60;99.90
2577;DHT22;1298;51.252;6.802;2023-01-01T10:51:04;14.70;99.90
2577;DHT22;1298;51.252;6.802;2023-01-01T10:53:50;14.70;99.90
2577;DHT22;1298;51.252;6.802;2023-01-01T10:56:39;14.70;99.90
2577;DHT22;1298;51.252;6.802;2023-01-01T10:59:34;14.70;99.90
2577;DHT22;1298;51.252;6.802;2023-01-01T11:02:23;14.70;99.90
2577;DHT22;1298;51.252;6.802;2023-01-01T11:05:13;14.80;99.90
2577;DHT22;1298;51.252;6.802;2023-01-01T11:08:01;14.80;99.90
2577;DHT22;1298;51.252;6.802;2023-01-01T11:10:48;14.80;99.90
2577;DHT22;1298;51.252;6.802;2023-01-01T11:13:34;14.80;99.90
2577;DHT22;1298;51.252;6.802;2023-01-01T11:16:19;14.80;99.90
2577;DHT22;1298;51.252;6.802;2023-01-01T11:19:06;14.80;99.90
2577;DHT22;1298;51.252;6.802;2023-01-01T11:21:52;14.80;99.90
2577;DHT22;1298;51.252;6.802;2023-01-01T11:24:39;14.90;99.90
2577;DHT22;1298;51.252;6.802;2023-01-01T11:27:24;14.90;99.90
2577;DHT22;1298;51.252;6.802;2023-01-01T11:30:16;14.80;99.90
2577;DHT22;1298;51.252;6.802;2023-01-01T11:33:02;14.80;99.90
2577;DHT22;1298;51.252;6.802;2023-01-01T11:35:49;14.80;99.90
2577;DHT22;1298;51.252;6.802;2023-01-01T11:38:35;14.80;99.90
2577;DHT22;1298;51.252;6.802;2023-01-01T11:41:21;14.80;99.90
2577;DHT22;1298;51.252;6.802;2023-01-01T11:44:06;14.80;99.90
2577;DHT22;1298;51.252;6.802;2023-01-01T11:46:52;14.80;99.90
2577;DHT22;1298;51.252;6.802;2023-01-01T11:49:37;14.80;99.90
2577;DHT22;1298;51.252;6.802;2023-01-01T11:52:26;14.80;99.90
2577;DHT22;1298;51.252;6.802;2023-01-01T11:55:18;14.80;99.90
2577;DHT22;1298;51.252;6.802;2023-01-01T11:58:08;14.80;99.90
2577;DHT22;1298;51.252;6.802;2023-01-01T12:00:55;14.80;99.90
2577;DHT22;1298;51.252;6.802;2023-01-01T12:03:42;14.80;99.90
2577;DHT22;1298;51.252;6.802;2023-01-01T12:06:29;14.70;99.90
2577;DHT22;1298;51.252;6.802;2023-01-01T12:09:16;14.80;99.90
2577;DHT22;1298;51.252;6.802;2023-01-01T12:12:04;14.90;99.90
2577;DHT22;1298;51.252;6.802;2023-01-01T12:14:54;14.80;99.90
2577;DHT22;1298;51.252;6.802;2023-01-01T12:17:42;14.90;99.90
2577;DHT22;1298;51.252;6.802;2023-01-01T12:20:29;14.80;99.90
2577;DHT22;1298;51.252;6.802;2023-01-01T12:23:15;14.80;99.90
2577;DHT22;1298;51.252;6.802;2023-01-01T12:26:03;14.80;99.90
2577;DHT22;1298;51.252;6.802;2023-01-01T12:29:00;14.80;99.90
2577;DHT22;1298;51.252;6.802;2023-01-01T12:31:51;14.80;99.90
2577;DHT22;1298;51.252;6.802;2023-01-01T12:34:39;14.80;99.90
2577;DHT22;1298;51.252;6.802;2023-01-01T12:37:31;14.80;99.90
2577;DHT22;1298;51.252;6.802;2023-01-01T12:40:29;14.70;99.90
2577;DHT22;1298;51.252;6.802;2023-01-01T12:43:19;14.80;99.90
2577;DHT22;1298;51.252;6.802;2023-01-01T12:49:16;14.80;99.90
2577;DHT22;1298;51.252;6.802;2023-01-01T12:52:08;14.80;99.90
2577;DHT22;1298;51.252;6.802;2023-01-01T12:55:19;14.70;99.90
2577;DHT22;1298;51.252;6.802;2023-01-01T12:58:08;14.70;99.90
2577;DHT22;1298;51.252;6.802;2023-01-01T13:00:55;14.80;99.90
2577;DHT22;1298;51.252;6.802;2023-01-01T13:03:46;14.70;99.90
2577;DHT22;1298;51.252;6.802;2023-01-01T13:06:35;14.70;99.90
2577;DHT22;1298;51.252;6.802;2023-01-01T13:09:22;14.70;99.90
2577;DHT22;1298;51.252;6.802;2023-01-01T13:12:09;14.70;99.90
2577;DHT22;1298;51.252;6.802;2023-01-01T13:14:55;14.70;99.90
2577;DHT22;1298;51.252;6.802;2023-01-01T13:17:40;14.60;99.90
2577;DHT22;1298;51.252;6.802;2023-01-01T13:20:36;14.60;99.90
2577;DHT22;1298;51.252;6.802;2023-01-01T13:23:43;14.60;99.90
2577;DHT22;1298;51.252;6.802;2023-01-01T13:26:33;14.60;99.90
2577;DHT22;1298;51.252;6.802;2023-01-01T13:29:24;14.60;99.90
2577;DHT22;1298;51.252;6.802;2023-01-01T13:32:10;14.60;99.90
2577;DHT22;1298;51.252;6.802;2023-01-01T13:34:59;14.60;99.90
2577;DHT22;1298;51.252;6.802;2023-01-01T13:37:45;14.60;99.90
2577;DHT22;1298;51.252;6.802;2023-01-01T13:43:35;14.50;99.90
2577;DHT22;1298;51.252;6.802;2023-01-01T13:46:21;14.50;99.90
2577;DHT22;1298;51.252;6.802;2023-01-01T13:49:12;14.50;99.90
2577;DHT22;1298;51.252;6.802;2023-01-01T13:52:06;14.50;99.90
2577;DHT22;1298;51.252;6.802;2023-01-01T13:55:01;14.50;99.90
2577;DHT22;1298;51.252;6.802;2023-01-01T14:01:04;14.50;99.90
2577;DHT22;1298;51.252;6.802;2023-01-01T14:03:52;14.50;99.90
2577;DHT22;1298;51.252;6.802;2023-01-01T14:06:39;14.50;99.90
2577;DHT22;1298;51.252;6.802;2023-01-01T14:09:26;14.50;99.90
2577;DHT22;1298;51.252;6.802;2023-01-01T14:12:14;14.50;99.90
2577;DHT22;1298;51.252;6.802;2023-01-01T14:15:07;14.50;99.90
2577;DHT22;1298;51.252;6.802;2023-01-01T14:17:59;14.50;99.90
2577;DHT22;1298;51.252;6.802;2023-01-01T14:20:47;14.50;99.90
2577;DHT22;1298;51.252;6.802;2023-01-01T14:23:33;14.50;99.90
2577;DHT22;1298;51.252;6.802;2023-01-01T14:26:20;14.50;99.90
2577;DHT22;1298;51.252;6.802;2023-01-01T14:29:06;14.40;99.90
2577;DHT22;1298;51.252;6.802;2023-01-01T14:31:52;14.50;99.90
2577;DHT22;1298;51.252;6.802;2023-01-01T14:34:39;14.40;99.90
2577;DHT22;1298;51.252;6.802;2023-01-01T14:37:26;14.40;99.90
2577;DHT22;1298;51.252;6.802;2023-01-01T14:40:16;14.40;99.90
2577;DHT22;1298;51.252;6.802;2023-01-01T14:43:03;14.40;99.90
2577;DHT22;1298;51.252;6.802;2023-01-01T14:45:49;14.40;99.90
2577;DHT22;1298;51.252;6.802;2023-01-01T14:48:36;14.40;99.90
2577;DHT22;1298;51.252;6.802;2023-01-01T14:51:23;14.40;99.90
2577;DHT22;1298;51.252;6.802;2023-01-01T14:54:11;14.40;99.90
2577;DHT22;1298;51.252;6.802;2023-01-01T14:56:59;14.30;99.90
2577;DHT22;1298;51.252;6.802;2023-01-01T14:59:44;14.30;99.90
2577;DHT22;1298;51.252;6.802;2023-01-01T15:02:30;14.30;99.90
2577;DHT22;1298;51.252;6.802;2023-01-01T15:05:26;14.30;99.90
2577;DHT22;1298;51.252;6.802;2023-01-01T15:08:20;14.30;99.90
2577;DHT22;1298;51.252;6.802;2023-01-01T15:11:06;14.30;99.90
2577;DHT22;1298;51.252;6.802;2023-01-01T15:13:51;14.30;99.90
2577;DHT22;1298;51.252;6.802;2023-01-01T15:16:37;14.20;99.90
2577;DHT22;1298;51.252;6.802;2023-01-01T15:19:22;14.20;99.90
2577;DHT22;1298;51.252;6.802;2023-01-01T15:22:07;14.10;99.90
2577;DHT22;1298;51.252;6.802;2023-01-01T15:24:55;14.10;99.90
2577;DHT22;1298;51.252;6.802;2023-01-01T15:27:40;14.10;99.90
2577;DHT22;1298;51.252;6.802;2023-01-01T15:30:27;14.10;99.90
2577;DHT22;1298;51.252;6.802;2023-01-01T15:33:14;14.10;99.90
2577;DHT22;1298;51.252;6.802;2023-01-01T15:36:00;14.00;99.90
2577;DHT22;1298;51.252;6.802;2023-01-01T15:38:46;14.00;99.90
2577;DHT22;1298;51.252;6.802;2023-01-01T15:41:39;14.00;99.90
2577;DHT22;1298;51.252;6.802;2023-01-01T15:44:26;13.90;99.90
2577;DHT22;1298;51.252;6.802;2023-01-01T15:47:12;13.90;99.90
2577;DHT22;1298;51.252;6.802;2023-01-01T15:50:07;13.80;99.90
2577;DHT22;1298;51.252;6.802;2023-01-01T15:52:53;13.70;99.90
2577;DHT22;1298;51.252;6.802;2023-01-01T15:55:41;13.70;99.90
2577;DHT22;1298;51.252;6.802;2023-01-01T15:58:29;13.70;99.90
2577;DHT22;1298;51.252;6.802;2023-01-01T16:01:18;13.70;99.90
2577;DHT22;1298;51.252;6.802;2023-01-01T16:04:06;13.60;99.90
2577;DHT22;1298;51.252;6.802;2023-01-01T16:06:52;13.70;99.90
2577;DHT22;1298;51.252;6.802;2023-01-01T16:09:38;13.60;99.90
2577;DHT22;1298;51.252;6.802;2023-01-01T16:12:23;13.50;99.90
2577;DHT22;1298;51.252;6.802;2023-01-01T16:15:12;13.50;99.90
2577;DHT22;1298;51.252;6.802;2023-01-01T16:17:58;13.50;99.90
2577;DHT22;1298;51.252;6.802;2023-01-01T16:20:43;13.40;99.90
2577;DHT22;1298;51.252;6.802;2023-01-01T16:23:29;13.30;99.90
2577;DHT22;1298;51.252;6.802;2023-01-01T16:26:14;13.20;99.90
2577;DHT22;1298;51.252;6.802;2023-01-01T16:28:59;13.20;99.90
2577;DHT22;1298;51.252;6.802;2023-01-01T16:31:46;13.10;99.90
2577;DHT22;1298;51.252;6.802;2023-01-01T16:34:31;13.00;99.90
2577;DHT22;1298;51.252;6.802;2023-01-01T16:37:16;13.00;99.90
2577;DHT22;1298;51.252;6.802;2023-01-01T16:40:06;12.90;99.90
2577;DHT22;1298;51.252;6.802;2023-01-01T16:42:52;12.90;99.90
2577;DHT22;1298;51.252;6.802;2023-01-01T16:45:37;12.90;99.90
2577;DHT22;1298;51.252;6.802;2023-01-01T16:48:23;12.80;99.90
2577;DHT22;1298;51.252;6.802;2023-01-01T16:51:13;12.80;99.90
2577;DHT22;1298;51.252;6.802;2023-01-01T16:54:00;12.70;99.90
2577;DHT22;1298;51.252;6.802;2023-01-01T16:56:45;12.70;99.90
2577;DHT22;1298;51.252;6.802;2023-01-01T16:59:31;12.70;99.90
2577;DHT22;1298;51.252;6.802;2023-01-01T17:02:16;12.70;99.90
2577;DHT22;1298;51.252;6.802;2023-01-01T17:05:04;12.60;99.90
2577;DHT22;1298;51.252;6.802;2023-01-01T17:07:50;12.50;99.90
2577;DHT22;1298;51.252;6.802;2023-01-01T17:10:36;12.50;99.90
2577;DHT22;1298;51.252;6.802;2023-01-01T17:13:21;12.50;99.90
2577;DHT22;1298;51.252;6.802;2023-01-01T17:16:07;12.40;99.90
2577;DHT22;1298;51.252;6.802;2023-01-01T17:18:53;12.40;99.90
2577;DHT22;1298;51.252;6.802;2023-01-01T17:21:40;12.40;99.90
2577;DHT22;1298;51.252;6.802;2023-01-01T17:24:26;12.30;99.90
2577;DHT22;1298;51.252;6.802;2023-01-01T17:27:11;12.30;99.90
2577;DHT22;1298;51.252;6.802;2023-01-01T17:29:56;12.30;99.90
2577;DHT22;1298;51.252;6.802;2023-01-01T17:32:41;12.30;99.90
2577;DHT22;1298;51.252;6.802;2023-01-01T17:35:26;12.30;99.90
2577;DHT22;1298;51.252;6.802;2023-01-01T17:38:13;12.20;99.90
2577;DHT22;1298;51.252;6.802;2023-01-01T17:41:02;12.20;99.90
2577;DHT22;1298;51.252;6.802;2023-01-01T17:43:48;12.20;99.90
2577;DHT22;1298;51.252;6.802;2023-01-01T17:46:33;12.20;99.90
2577;DHT22;1298;51.252;6.802;2023-01-01T17:49:18;12.20;99.90
2577;DHT22;1298;51.252;6.802;2023-01-01T17:52:04;12.20;99.90
2577;DHT22;1298;51.252;6.802;2023-01-01T17:54:51;12.20;99.90
2577;DHT22;1298;51.252;6.802;2023-01-01T17:57:36;12.20;99.90
2577;DHT22;1298;51.252;6.802;2023-01-01T18:00:21;12.20;99.90
2577;DHT22;1298;51.252;6.802;2023-01-01T18:03:09;12.20;99.90
2577;DHT22;1298;51.252;6.802;2023-01-01T18:05:55;12.10;99.90
2577;DHT22;1298;51.252;6.802;2023-01-01T18:08:40;12.10;99.90
2577;DHT22;1298;51.252;6.802;2023-01-01T18:11:28;12.00;99.90
2577;DHT22;1298;51.252;6.802;2023-01-01T18:14:13;12.00;99.90
2577;DHT22;1298;51.252;6.802;2023-01-01T18:16:58;12.00;99.90
2577;DHT22;1298;51.252;6.802;2023-01-01T18:19:43;12.00;99.90
2577;DHT22;1298;51.252;6.802;2023-01-01T18:22:29;12.00;99.90